»·PEaware :: N5GL KHND-KGCN

N5GL :: KHND-KGCN

FLIGHT INFORMATION

Flight Status: Arrived
Operator: Privately registered:
United States
More flights under this callsign
Pilot: Georg L. (13308)
Aircraft: SOCATA TBM-900
(TBM9)
More flights by this aircraft type
Origin: KHND Henderson
United States
Destination: KGCN Grand Canyon Natl Park
United States
More flights between these airports :: More routes between these airports
Route: +PALLY6 PALLY MNGGO
File this flight plan on PilotEdge
Remarks:
Altitude:
(Current/Filed)
25,000ft
Speed:
(Current/Filed)
313kts
Departed: 15-Apr-20 01:28 PM
Arrived: 15-Apr-20 02:12 PM
Distance/Time
Traveled:
146nm/0:44
Distance/Time
To Go:
Arrived

Flight Plot

Page will automatically refresh every two minutes.

Flight plan parsing failed; only flown route is shown


Map Options




Map Legend


Flown Route
Filed Route
Departure Airport
Arrival Airport
Navaid (VOR, NDB)
Fix

Horizontal Profiles

Position Reports

Time Latitude Longitude Heading Altitude Ground
Speed
15-Apr-20 13:07 35.974729 -115.137956 359 2426ft 0kts
15-Apr-20 13:08 35.974729 -115.137956 359 2426ft 0kts
15-Apr-20 13:09 35.974729 -115.137956 359 2426ft 0kts
15-Apr-20 13:10 35.974729 -115.137956 359 2426ft 0kts
15-Apr-20 13:11 35.974729 -115.137956 359 2426ft 0kts
15-Apr-20 13:12 35.974729 -115.137956 359 2426ft 0kts
15-Apr-20 13:13 35.974729 -115.137956 359 2426ft 0kts
15-Apr-20 13:14 35.974729 -115.137956 359 2426ft 0kts
15-Apr-20 13:15 35.974729 -115.137956 359 2426ft 0kts
15-Apr-20 13:16 35.974729 -115.137956 359 2426ft 0kts
15-Apr-20 13:17 35.974729 -115.137956 359 2426ft 0kts
15-Apr-20 13:18 35.974729 -115.137956 359 2426ft 0kts
15-Apr-20 13:19 35.974757 -115.137956 359 2426ft 2kts
15-Apr-20 13:20 35.974432 -115.137857 90 2427ft 6kts
15-Apr-20 13:21 35.974421 -115.136706 91 2430ft 4kts
15-Apr-20 13:22 35.970522 -115.136473 180 2448ft 21kts
15-Apr-20 13:23 35.964716 -115.136544 181 2482ft 18kts
15-Apr-20 13:24 35.963135 -115.136292 101 2491ft 0kts
15-Apr-20 13:25 35.963135 -115.136292 101 2491ft 0kts
15-Apr-20 13:26 35.963741 -115.135529 0 2489ft 0kts
15-Apr-20 13:27 35.985985 -115.136165 354 3333ft 119kts
15-Apr-20 13:28 36.005934 -115.109554 94 5307ft 146kts
15-Apr-20 13:29 36.007319 -115.049124 84 6077ft 222kts
15-Apr-20 13:30 35.982831 -114.989123 159 7037ft 217kts
15-Apr-20 13:31 35.925124 -114.964558 160 8043ft 241kts
15-Apr-20 13:32 35.865162 -114.998634 220 8038ft 261kts
15-Apr-20 13:33 35.808102 -115.055599 221 8036ft 265kts
15-Apr-20 13:34 35.756521 -115.118252 244 8046ft 258kts
15-Apr-20 13:35 35.722206 -115.195722 243 8052ft 256kts
15-Apr-20 13:36 35.684819 -115.266425 205 8918ft 233kts
15-Apr-20 13:37 35.662907 -115.221665 48 10830ft 204kts
15-Apr-20 13:38 35.694269 -115.163536 70 12410ft 212kts
15-Apr-20 13:39 35.702883 -115.089977 78 13934ft 221kts
15-Apr-20 13:40 35.709999 -115.018763 78 15378ft 226kts
15-Apr-20 13:41 35.714470 -114.973779 78 16208ft 230kts
15-Apr-20 13:42 35.722312 -114.894445 78 17569ft 237kts
15-Apr-20 13:43 35.730293 -114.813156 78 18927ft 242kts
15-Apr-20 13:44 35.738164 -114.732349 78 19899ft 250kts
15-Apr-20 13:45 35.744939 -114.662516 78 20865ft 253kts
15-Apr-20 13:46 35.753336 -114.575179 78 22227ft 259kts
15-Apr-20 13:47 35.761863 -114.485837 78 23465ft 266kts
15-Apr-20 13:48 35.770547 -114.394133 78 24577ft 274kts
15-Apr-20 13:50 35.779675 -114.297065 79 25135ft 302kts
15-Apr-20 13:51 35.789629 -114.190007 80 25132ft 324kts
15-Apr-20 13:52 35.800057 -114.076687 80 25122ft 337kts
15-Apr-20 13:53 35.810565 -113.961243 80 25137ft 340kts
15-Apr-20 13:54 35.821019 -113.845225 80 25137ft 341kts
15-Apr-20 13:55 35.831427 -113.728406 80 25138ft 342kts
15-Apr-20 13:56 35.841720 -113.611619 80 25138ft 342kts
15-Apr-20 13:57 35.851913 -113.494608 80 25139ft 343kts
15-Apr-20 13:58 35.861590 -113.374960 81 23963ft 361kts
15-Apr-20 13:59 35.871382 -113.250297 82 22336ft 365kts
15-Apr-20 14:00 35.880978 -113.126483 82 20722ft 361kts
15-Apr-20 14:01 35.890314 -113.004580 82 19136ft 351kts
15-Apr-20 14:02 35.899277 -112.885986 83 17604ft 345kts
15-Apr-20 14:03 35.907911 -112.769951 84 16103ft 330kts
15-Apr-20 14:04 35.916230 -112.656576 84 14640ft 332kts
15-Apr-20 14:05 35.924422 -112.543698 84 13174ft 325kts
15-Apr-20 14:06 35.932305 -112.433666 84 11746ft 318kts
15-Apr-20 14:07 35.943380 -112.325773 80 10317ft 313kts
15-Apr-20 14:08 35.976296 -112.233750 41 8769ft 292kts
15-Apr-20 14:08 36.013559 -112.171060 93 8206ft 262kts
15-Apr-20 14:09 35.979487 -112.119610 195 7986ft 144kts
15-Apr-20 14:11 35.953828 -112.145422 223 6579ft 73kts
15-Apr-20 14:11 35.947423 -112.151575 154 6554ft 13kts
15-Apr-20 14:12 35.947468 -112.150385 40 6558ft 4kts
15-Apr-20 14:14 35.952486 -112.145059 39 6579ft 26kts
15-Apr-20 14:15 35.957989 -112.139244 39 6604ft 25kts
15-Apr-20 14:15 35.959719 -112.136641 66 6614ft 4kts
15-Apr-20 14:16 35.959982 -112.135997 41 6618ft 0kts
15-Apr-20 14:17 35.959982 -112.135997 41 6618ft 0kts
15-Apr-20 14:18 35.959982 -112.135997 41 6618ft 0kts
15-Apr-20 14:19 35.959982 -112.135997 41 6618ft 0kts
15-Apr-20 14:20 35.959965 -112.136019 57 6618ft 1kts
15-Apr-20 14:21 35.959796 -112.136354 42 6616ft 0kts
15-Apr-20 14:22 35.959796 -112.136354 42 6616ft 0kts

Navigation Log

Ident Type
Flight plan parsing failed, navigation log unavailable